CheckWX is a tool to help pilots better visualize weather data.  It is not intended as a substitute for an official pre-flight weather briefing.

07:12:02 UTC

KTWF METAR
Joslin Field - Magic Valley Regional Airport
Twin Falls, Idaho, USA
Current

19 mins ago

KTWF 140653Z AUTO 21003KT 10SM CLR M01/M03 A3016 RMK AO2 SLP206 T10111028 401331017 $
Observed
Nov-14 @ 06:53 UTC
Wind
  • 210° at 3 KTS
Visibility
10 SM
Flight Rules
VFR
Cloud Levels
  • Clear skies
Temperature
-1°C / 30°F
Dewpoint
-3°C / 27°F
Humidity
86%
Altimeter
30.16" Hg
Pressure
1021.32 hPa
Previous

1 hour ago

KTWF 140553Z AUTO 14003KT 10SM CLR M01/M03 A3016 RMK AO2 SLP205 T10111033 10106 21011 51009 $
Observed
Nov-14 @ 05:53 UTC
Wind
  • 140° at 3 KTS
Visibility
10 SM
Flight Rules
VFR
Cloud Levels
  • Clear skies
Temperature
-1°C / 30°F
Dewpoint
-3°C / 27°F
Humidity
86%
Altimeter
30.16" Hg
Pressure
1021.32 hPa
Previous

2 hours ago

KTWF 140453Z AUTO 18004KT 10SM CLR 01/M02 A3015 RMK AO2 SLP200 T00061022 $
Observed
Nov-14 @ 04:53 UTC
Wind
  • 180° at 4 KTS
Visibility
10 SM
Flight Rules
VFR
Cloud Levels
  • Clear skies
Temperature
C / 34°F
Dewpoint
-2°C / 28°F
Humidity
81%
Altimeter
30.15" Hg
Pressure
1021.02 hPa